Time,TemperatureF,DewpointF,PressureIn,WindDirection,WindDirectionDegrees,WindSpeedMPH,WindSpeedGustMPH,Humidity,HourlyPrecipIn,Conditions,Clouds,dailyrainin,SoftwareType,DateUTC
2013-02-19 00:00:00,13.1,-2.9,30.17,ESE,121,0.0,1.0,48,0.00,,,0.00,VWS V14.01,2013-02-19 05:00:00,
2013-02-19 00:05:00,13.0,-4.3,30.17,ESE,121,0.0,0.0,45,0.00,,,0.00,VWS V14.01,2013-02-19 05:05:00,
2013-02-19 00:10:00,13.0,-4.8,30.18,ESE,121,0.0,0.0,44,0.00,,,0.00,VWS V14.01,2013-02-19 05:10:00,
2013-02-19 00:15:00,13.0,-4.8,30.17,ESE,121,0.0,0.0,44,0.00,,,0.00,VWS V14.01,2013-02-19 05:15:00,
2013-02-19 00:20:00,12.9,-4.4,30.17,ESE,121,0.0,1.0,45,0.00,,,0.00,VWS V14.01,2013-02-19 05:20:00,
2013-02-19 00:25:00,13.0,-4.3,30.17,ESE,121,0.0,0.0,45,0.00,,,0.00,VWS V14.01,2013-02-19 05:25:00,
2013-02-19 00:30:00,13.0,-3.4,30.17,ESE,121,0.0,0.0,47,0.00,,,0.00,VWS V14.01,2013-02-19 05:30:00,
2013-02-19 00:35:00,13.0,-3.4,30.17,ESE,121,0.0,0.0,47,0.00,,,0.00,VWS V14.01,2013-02-19 05:35:00,
2013-02-19 00:40:00,13.0,-3.4,30.17,ESE,121,0.0,0.0,47,0.00,,,0.00,VWS V14.01,2013-02-19 05:40:00,
2013-02-19 00:45:00,12.9,-0.6,30.17,ESE,121,0.0,0.0,54,0.00,,,0.00,VWS V14.01,2013-02-19 05:45:00,
2013-02-19 00:50:00,12.7,-1.2,30.17,ESE,121,0.0,0.0,53,0.00,,,0.00,VWS V14.01,2013-02-19 05:50:00,
2013-02-19 00:55:00,12.5,-1.8,30.17,ESE,121,0.0,0.0,52,0.00,,,0.00,VWS V14.01,2013-02-19 05:55:00,
2013-02-19 01:00:00,12.3,-2.4,30.17,ESE,121,0.0,0.0,51,0.00,,,0.00,VWS V14.01,2013-02-19 06:00:00,
2013-02-19 01:05:00,12.2,0.3,30.17,ESE,121,0.0,0.0,58,0.00,,,0.00,VWS V14.01,2013-02-19 06:05:00,
2013-02-19 01:10:00,12.1,-1.7,30.17,ESE,121,0.0,0.0,53,0.00,,,0.00,VWS V14.01,2013-02-19 06:10:00,
2013-02-19 01:15:00,12.0,-1.4,30.17,ESE,121,0.0,0.0,54,0.00,,,0.00,VWS V14.01,2013-02-19 06:15:00,
2013-02-19 01:20:00,12.0,-2.2,30.18,ESE,121,0.0,0.0,52,0.00,,,0.00,VWS V14.01,2013-02-19 06:20:00,
2013-02-19 01:25:00,11.9,-1.5,30.17,ESE,121,0.0,0.0,54,0.00,,,0.00,VWS V14.01,2013-02-19 06:25:00,
2013-02-19 01:30:00,12.0,-0.7,30.18,ESE,121,0.0,1.0,56,0.00,,,0.00,VWS V14.01,2013-02-19 06:30:00,
2013-02-19 01:35:00,11.9,-1.1,30.18,ESE,121,0.0,0.0,55,0.00,,,0.00,VWS V14.01,2013-02-19 06:35:00,
2013-02-19 01:40:00,12.0,-1.4,30.18,ESE,121,0.0,1.0,54,0.00,,,0.00,VWS V14.01,2013-02-19 06:40:00,
2013-02-19 01:45:00,12.1,-1.7,30.17,ESE,121,0.0,0.0,53,0.00,,,0.00,VWS V14.01,2013-02-19 06:45:00,
2013-02-19 01:50:00,12.1,-2.5,30.17,ESE,121,0.0,0.0,51,0.00,,,0.00,VWS V14.01,2013-02-19 06:50:00,
2013-02-19 01:55:00,12.1,-1.4,30.18,ESE,121,0.0,0.0,54,0.00,,,0.00,VWS V14.01,2013-02-19 06:55:00,
2013-02-19 02:00:00,12.0,-1.4,30.18,ESE,121,0.0,1.0,54,0.00,,,0.00,VWS V14.01,2013-02-19 07:00:00,
2013-02-19 02:05:00,12.0,-1.4,30.19,ESE,121,0.0,0.0,54,0.00,,,0.00,VWS V14.01,2013-02-19 07:05:00,
2013-02-19 02:10:00,12.0,-1.8,30.19,ESE,121,0.0,0.0,53,0.00,,,0.00,VWS V14.01,2013-02-19 07:10:00,
2013-02-19 02:15:00,12.1,-1.7,30.19,ESE,121,0.0,0.0,53,0.00,,,0.00,VWS V14.01,2013-02-19 07:15:00,
2013-02-19 02:20:00,12.1,-1.7,30.19,ESE,121,0.0,0.0,53,0.00,,,0.00,VWS V14.01,2013-02-19 07:20:00,
2013-02-19 02:25:00,12.2,-1.3,30.19,ESE,121,0.0,0.0,54,0.00,,,0.00,VWS V14.01,2013-02-19 07:25:00,
2013-02-19 02:30:00,12.2,-1.6,30.19,ESE,121,0.0,0.0,53,0.00,,,0.00,VWS V14.01,2013-02-19 07:30:00,
2013-02-19 02:35:00,12.3,-0.4,30.19,ESE,121,0.0,0.0,56,0.00,,,0.00,VWS V14.01,2013-02-19 07:35:00,
2013-02-19 02:40:00,12.3,0.7,30.19,ESE,121,0.0,0.0,59,0.00,,,0.00,VWS V14.01,2013-02-19 07:40:00,
2013-02-19 02:45:00,12.3,0.3,30.19,ESE,121,0.0,0.0,58,0.00,,,0.00,VWS V14.01,2013-02-19 07:45:00,
2013-02-19 02:50:00,12.4,-0.3,30.18,ESE,121,0.0,0.0,56,0.00,,,0.00,VWS V14.01,2013-02-19 07:50:00,
2013-02-19 02:55:00,12.6,2.1,30.18,ESE,121,0.0,0.0,62,0.00,,,0.00,VWS V14.01,2013-02-19 07:55:00,
2013-02-19 03:00:00,12.6,2.8,30.18,ESE,121,0.0,0.0,64,0.00,,,0.00,VWS V14.01,2013-02-19 08:00:00,
2013-02-19 03:05:00,12.7,3.5,30.18,ESE,121,0.0,0.0,66,0.00,,,0.00,VWS V14.01,2013-02-19 08:05:00,
2013-02-19 03:10:00,12.6,2.8,30.18,ESE,121,0.0,0.0,64,0.00,,,0.00,VWS V14.01,2013-02-19 08:10:00,
2013-02-19 03:15:00,12.3,1.8,30.18,ESE,121,0.0,0.0,62,0.00,,,0.00,VWS V14.01,2013-02-19 08:15:00,
2013-02-19 03:20:00,12.0,1.1,30.18,ESE,121,0.0,0.0,61,0.00,,,0.00,VWS V14.01,2013-02-19 08:20:00,
2013-02-19 03:25:00,11.7,1.2,30.18,ESE,121,0.0,0.0,62,0.00,,,0.00,VWS V14.01,2013-02-19 08:25:00,
2013-02-19 03:30:00,11.3,-0.2,30.19,ESE,121,0.0,1.0,59,0.00,,,0.00,VWS V14.01,2013-02-19 08:30:00,
2013-02-19 03:35:00,11.3,-0.6,30.18,ESE,121,0.0,0.0,58,0.00,,,0.00,VWS V14.01,2013-02-19 08:35:00,
2013-02-19 03:40:00,11.3,0.1,30.18,ESE,121,0.0,1.0,60,0.00,,,0.00,VWS V14.01,2013-02-19 08:40:00,
2013-02-19 03:45:00,11.3,-0.6,30.18,ESE,121,1.0,1.0,58,0.00,,,0.00,VWS V14.01,2013-02-19 08:45:00,
2013-02-19 03:50:00,11.4,0.2,30.18,ESE,121,0.0,1.0,60,0.00,,,0.00,VWS V14.01,2013-02-19 08:50:00,
2013-02-19 03:55:00,11.7,0.2,30.18,ESE,121,0.0,0.0,59,0.00,,,0.00,VWS V14.01,2013-02-19 08:55:00,
2013-02-19 04:00:00,11.8,1.0,30.18,ESE,121,0.0,0.0,61,0.00,,,0.00,VWS V14.01,2013-02-19 09:00:00,
2013-02-19 04:05:00,12.1,0.9,30.17,ESE,121,0.0,0.0,60,0.00,,,0.00,VWS V14.01,2013-02-19 09:05:00,
2013-02-19 04:10:00,12.3,0.7,30.17,ESE,121,0.0,1.0,59,0.00,,,0.00,VWS V14.01,2013-02-19 09:10:00,
2013-02-19 04:15:00,12.5,2.0,30.17,ESE,121,0.0,0.0,62,0.00,,,0.00,VWS V14.01,2013-02-19 09:15:00,
2013-02-19 04:20:00,12.8,3.6,30.17,ESE,121,0.0,0.0,66,0.00,,,0.00,VWS V14.01,2013-02-19 09:20:00,
2013-02-19 04:25:00,13.0,3.5,30.17,ESE,121,0.0,0.0,65,0.00,,,0.00,VWS V14.01,2013-02-19 09:25:00,
2013-02-19 04:30:00,13.1,3.9,30.16,ESE,121,0.0,0.0,66,0.00,,,0.00,VWS V14.01,2013-02-19 09:30:00,
2013-02-19 04:35:00,13.2,4.6,30.16,ESE,121,0.0,0.0,68,0.00,,,0.00,VWS V14.01,2013-02-19 09:35:00,
2013-02-19 04:40:00,13.2,4.3,30.16,ESE,121,0.0,0.0,67,0.00,,,0.00,VWS V14.01,2013-02-19 09:40:00,
2013-02-19 04:45:00,13.0,3.1,30.16,ESE,121,1.0,1.0,64,0.00,,,0.00,VWS V14.01,2013-02-19 09:45:00,
2013-02-19 04:50:00,12.8,2.6,30.16,ESE,121,0.0,1.0,63,0.00,,,0.00,VWS V14.01,2013-02-19 09:50:00,
2013-02-19 04:55:00,12.7,2.8,30.16,ESE,121,0.0,0.0,64,0.00,,,0.00,VWS V14.01,2013-02-19 09:55:00,
2013-02-19 05:00:00,12.7,2.8,30.15,ESE,121,0.0,0.0,64,0.00,,,0.00,VWS V14.01,2013-02-19 10:00:00,
2013-02-19 05:05:00,12.8,3.3,30.15,ESE,121,0.0,0.0,65,0.00,,,0.00,VWS V14.01,2013-02-19 10:05:00,
2013-02-19 05:10:00,12.7,2.8,30.15,ESE,121,0.0,0.0,64,0.00,,,0.00,VWS V14.01,2013-02-19 10:10:00,
2013-02-19 05:15:00,12.6,2.8,30.15,ESE,121,0.0,0.0,64,0.00,,,0.00,VWS V14.01,2013-02-19 10:15:00,
2013-02-19 05:20:00,12.5,3.3,30.15,ESE,121,0.0,1.0,66,0.00,,,0.00,VWS V14.01,2013-02-19 10:20:00,
2013-02-19 05:25:00,12.4,1.9,30.14,ESE,121,0.0,0.0,62,0.00,,,0.00,VWS V14.01,2013-02-19 10:25:00,
2013-02-19 05:30:00,12.4,-0.3,30.14,ESE,121,0.0,0.0,56,0.00,,,0.00,VWS V14.01,2013-02-19 10:30:00,
2013-02-19 05:35:00,12.3,2.1,30.15,ESE,121,0.0,0.0,63,0.00,,,0.00,VWS V14.01,2013-02-19 10:35:00,
2013-02-19 05:40:00,11.8,1.0,30.14,ESE,121,0.0,2.0,61,0.00,,,0.00,VWS V14.01,2013-02-19 10:40:00,
2013-02-19 05:45:00,11.6,0.8,30.14,ESE,121,0.0,0.0,61,0.00,,,0.00,VWS V14.01,2013-02-19 10:45:00,
2013-02-19 05:50:00,11.5,1.0,30.13,ESE,121,0.0,1.0,62,0.00,,,0.00,VWS V14.01,2013-02-19 10:50:00,
2013-02-19 05:55:00,11.4,0.9,30.13,ESE,121,0.0,0.0,62,0.00,,,0.00,VWS V14.01,2013-02-19 10:55:00,
2013-02-19 06:00:00,11.5,2.0,30.13,ESE,121,0.0,0.0,65,0.00,,,0.00,VWS V14.01,2013-02-19 11:00:00,
2013-02-19 06:05:00,11.5,1.7,30.13,ESE,121,0.0,0.0,64,0.00,,,0.00,VWS V14.01,2013-02-19 11:05:00,
2013-02-19 06:10:00,11.5,1.7,30.13,ESE,121,0.0,0.0,64,0.00,,,0.00,VWS V14.01,2013-02-19 11:10:00,
2013-02-19 06:15:00,11.4,0.9,30.12,ESE,121,0.0,0.0,62,0.00,,,0.00,VWS V14.01,2013-02-19 11:15:00,
2013-02-19 06:20:00,11.3,0.5,30.12,ESE,121,0.0,0.0,61,0.00,,,0.00,VWS V14.01,2013-02-19 11:20:00,
2013-02-19 06:25:00,11.3,0.5,30.12,ESE,121,0.0,0.0,61,0.00,,,0.00,VWS V14.01,2013-02-19 11:25:00,
2013-02-19 06:30:00,11.4,0.6,30.12,ESE,121,0.0,0.0,61,0.00,,,0.00,VWS V14.01,2013-02-19 11:30:00,
2013-02-19 06:35:00,11.5,-0.4,30.11,ESE,121,0.0,1.0,58,0.00,,,0.00,VWS V14.01,2013-02-19 11:35:00,
2013-02-19 06:40:00,11.4,-0.1,30.11,ESE,121,0.0,1.0,59,0.00,,,0.00,VWS V14.01,2013-02-19 11:40:00,
2013-02-19 06:45:00,11.4,-0.9,30.11,ESE,121,0.0,0.0,57,0.00,,,0.00,VWS V14.01,2013-02-19 11:45:00,
2013-02-19 06:50:00,11.4,-0.9,30.11,ESE,121,0.0,0.0,57,0.00,,,0.00,VWS V14.01,2013-02-19 11:50:00,
2013-02-19 06:55:00,11.4,-1.6,30.11,ESE,121,0.0,0.0,55,0.00,,,0.00,VWS V14.01,2013-02-19 11:55:00,
2013-02-19 07:00:00,11.5,-1.5,30.10,ESE,121,0.0,0.0,55,0.00,,,0.00,VWS V14.01,2013-02-19 12:00:00,
2013-02-19 07:05:00,11.6,-1.0,30.11,ESE,121,0.0,0.0,56,0.00,,,0.00,VWS V14.01,2013-02-19 12:05:00,
2013-02-19 07:10:00,11.6,-1.4,30.11,ESE,121,0.0,0.0,55,0.00,,,0.00,VWS V14.01,2013-02-19 12:10:00,
2013-02-19 07:15:00,11.8,-1.6,30.11,ESE,121,0.0,0.0,54,0.00,,,0.00,VWS V14.01,2013-02-19 12:15:00,
2013-02-19 07:20:00,11.9,1.0,30.11,ESE,121,0.0,0.0,61,0.00,,,0.00,VWS V14.01,2013-02-19 12:20:00,
2013-02-19 07:25:00,11.7,0.9,30.11,ESE,121,0.0,0.0,61,0.00,,,0.00,VWS V14.01,2013-02-19 12:25:00,
2013-02-19 07:30:00,11.8,-0.5,30.10,ESE,121,0.0,0.0,57,0.00,,,0.00,VWS V14.01,2013-02-19 12:30:00,
2013-02-19 07:35:00,12.0,-0.3,30.10,ESE,121,0.0,0.0,57,0.00,,,0.00,VWS V14.01,2013-02-19 12:35:00,
2013-02-19 07:40:00,12.2,1.0,30.10,ESE,121,0.0,0.0,60,0.00,,,0.00,VWS V14.01,2013-02-19 12:40:00,
2013-02-19 07:45:00,12.0,1.1,30.10,ESE,121,0.0,0.0,61,0.00,,,0.00,VWS V14.01,2013-02-19 12:45:00,
2013-02-19 07:50:00,11.7,0.2,30.10,ESE,121,0.0,0.0,59,0.00,,,0.00,VWS V14.01,2013-02-19 12:50:00,
2013-02-19 07:55:00,11.7,0.5,30.10,ESE,121,0.0,0.0,60,0.00,,,0.00,VWS V14.01,2013-02-19 12:55:00,
2013-02-19 08:00:00,11.9,0.7,30.09,ESE,121,0.0,0.0,60,0.00,,,0.00,VWS V14.01,2013-02-19 13:00:00,
2013-02-19 08:05:00,12.1,1.9,30.09,ESE,121,0.0,0.0,63,0.00,,,0.00,VWS V14.01,2013-02-19 13:05:00,
2013-02-19 08:10:00,12.3,1.8,30.09,ESE,121,0.0,0.0,62,0.00,,,0.00,VWS V14.01,2013-02-19 13:10:00,
2013-02-19 08:15:00,12.5,1.3,30.09,ESE,121,0.0,0.0,60,0.00,,,0.00,VWS V14.01,2013-02-19 13:15:00,
2013-02-19 08:20:00,12.6,0.3,30.09,ESE,121,0.0,1.0,57,0.00,,,0.00,VWS V14.01,2013-02-19 13:20:00,
2013-02-19 08:25:00,12.8,1.2,30.08,ESE,121,0.0,0.0,59,0.00,,,0.00,VWS V14.01,2013-02-19 13:25:00,
2013-02-19 08:30:00,13.0,1.7,30.08,ESE,121,0.0,0.0,60,0.00,,,0.00,VWS V14.01,2013-02-19 13:30:00,
2013-02-19 08:35:00,13.3,1.7,30.08,ESE,121,0.0,0.0,59,0.00,,,0.00,VWS V14.01,2013-02-19 13:35:00,
2013-02-19 08:40:00,14.0,1.6,30.08,ESE,121,0.0,0.0,57,0.00,,,0.00,VWS V14.01,2013-02-19 13:40:00,
2013-02-19 08:45:00,14.5,2.0,30.08,ESE,121,0.0,0.0,57,0.00,,,0.00,VWS V14.01,2013-02-19 13:45:00,
2013-02-19 08:50:00,15.0,1.8,30.08,ESE,121,0.0,1.0,55,0.00,,,0.00,VWS V14.01,2013-02-19 13:50:00,
2013-02-19 08:55:00,15.5,2.2,30.08,ESE,121,0.0,1.0,55,0.00,,,0.00,VWS V14.01,2013-02-19 13:55:00,
2013-02-19 09:00:00,15.9,1.8,30.08,NE,51,0.0,2.0,53,0.00,,,0.00,VWS V14.01,2013-02-19 14:00:00,
2013-02-19 09:05:00,16.1,2.0,30.08,NE,51,0.0,0.0,53,0.00,,,0.00,VWS V14.01,2013-02-19 14:05:00,
2013-02-19 09:10:00,16.6,2.5,30.07,NE,48,1.0,2.0,53,0.00,,,0.00,VWS V14.01,2013-02-19 14:10:00,
2013-02-19 09:15:00,17.0,2.0,30.07,NE,48,0.0,0.0,51,0.00,,,0.00,VWS V14.01,2013-02-19 14:15:00,
2013-02-19 09:20:00,17.5,2.5,30.07,NNE,29,1.0,3.0,51,0.00,,,0.00,VWS V14.01,2013-02-19 14:20:00,
2013-02-19 09:25:00,17.9,2.0,30.07,North,5,0.0,0.0,49,0.00,,,0.00,VWS V14.01,2013-02-19 14:25:00,
2013-02-19 09:30:00,18.3,2.3,30.06,North,5,0.0,1.0,49,0.00,,,0.00,VWS V14.01,2013-02-19 14:30:00,
2013-02-19 09:35:00,18.9,2.5,30.06,North,5,0.0,0.0,48,0.00,,,0.00,VWS V14.01,2013-02-19 14:35:00,
2013-02-19 09:40:00,19.6,3.1,30.06,North,5,0.0,3.0,48,0.00,,,0.00,VWS V14.01,2013-02-19 14:40:00,
2013-02-19 09:45:00,20.2,3.7,30.06,North,5,0.0,1.0,48,0.00,,,0.00,VWS V14.01,2013-02-19 14:45:00,
2013-02-19 09:50:00,20.9,3.8,30.05,North,5,2.0,3.0,47,0.00,,,0.00,VWS V14.01,2013-02-19 14:50:00,
2013-02-19 09:55:00,21.3,4.2,30.05,North,5,0.0,2.0,47,0.00,,,0.00,VWS V14.01,2013-02-19 14:55:00,
2013-02-19 10:00:00,21.7,3.7,30.05,North,5,0.0,3.0,45,0.00,,,0.00,VWS V14.01,2013-02-19 15:00:00,
2013-02-19 10:05:00,22.4,3.8,30.04,North,5,0.0,0.0,44,0.00,,,0.00,VWS V14.01,2013-02-19 15:05:00,
2013-02-19 10:10:00,22.9,3.2,30.04,North,5,0.0,3.0,42,0.00,,,0.00,VWS V14.01,2013-02-19 15:10:00,
2013-02-19 10:15:00,23.3,3.1,30.04,North,5,0.0,0.0,41,0.00,,,0.00,VWS V14.01,2013-02-19 15:15:00,
2013-02-19 10:20:00,23.9,3.6,30.03,North,5,0.0,1.0,41,0.00,,,0.00,VWS V14.01,2013-02-19 15:20:00,
2013-02-19 10:25:00,24.6,3.2,30.02,North,5,0.0,1.0,39,0.00,,,0.00,VWS V14.01,2013-02-19 15:25:00,
2013-02-19 10:30:00,25.1,3.6,30.01,East,79,0.0,2.0,39,0.00,,,0.00,VWS V14.01,2013-02-19 15:30:00,
2013-02-19 10:35:00,25.5,4.0,30.01,North,360,3.0,4.0,39,0.00,,,0.00,VWS V14.01,2013-02-19 15:35:00,
2013-02-19 10:40:00,25.8,3.1,30.01,NNW,330,0.0,5.0,37,0.00,,,0.00,VWS V14.01,2013-02-19 15:40:00,
2013-02-19 10:45:00,26.7,3.3,30.01,WSW,248,4.0,4.0,36,0.00,,,0.00,VWS V14.01,2013-02-19 15:45:00,
2013-02-19 10:50:00,27.0,3.0,30.01,NW,311,3.0,5.0,35,0.00,,,0.00,VWS V14.01,2013-02-19 15:50:00,
2013-02-19 10:55:00,27.2,2.6,30.01,NW,311,0.0,0.0,34,0.00,,,0.00,VWS V14.01,2013-02-19 15:55:00,
2013-02-19 11:00:00,27.7,4.2,30.01,WNW,300,0.0,3.0,36,0.00,,,0.00,VWS V14.01,2013-02-19 16:00:00,
2013-02-19 11:05:00,29.0,6.6,30.01,NNW,340,2.0,4.0,38,0.00,,,0.00,VWS V14.01,2013-02-19 16:05:00,
2013-02-19 11:10:00,29.9,6.8,30.00,South,182,4.0,6.0,37,0.00,,,0.00,VWS V14.01,2013-02-19 16:10:00,
2013-02-19 11:15:00,30.4,7.3,30.00,WSW,256,2.0,2.0,37,0.00,,,0.00,VWS V14.01,2013-02-19 16:15:00,
2013-02-19 11:20:00,30.8,6.4,30.00,SW,220,0.0,7.0,35,0.00,,,0.00,VWS V14.01,2013-02-19 16:20:00,
2013-02-19 11:25:00,31.0,9.0,30.00,WNW,284,0.0,4.0,39,0.00,,,0.00,VWS V14.01,2013-02-19 16:25:00,
2013-02-19 11:30:00,31.4,6.9,29.99,West,274,1.0,7.0,35,0.00,,,0.00,VWS V14.01,2013-02-19 16:30:00,
2013-02-19 11:35:00,31.7,9.0,29.98,SW,232,1.0,6.0,38,0.00,,,0.00,VWS V14.01,2013-02-19 16:35:00,
2013-02-19 11:40:00,32.2,9.5,29.97,SSW,209,4.0,8.0,38,0.00,,,0.00,VWS V14.01,2013-02-19 16:40:00,
2013-02-19 11:45:00,32.5,8.5,29.96,NW,306,2.0,5.0,36,0.00,,,0.00,VWS V14.01,2013-02-19 16:45:00,
2013-02-19 11:50:00,33.0,9.6,29.95,WNW,302,0.0,5.0,37,0.00,,,0.00,VWS V14.01,2013-02-19 16:50:00,
2013-02-19 11:55:00,33.8,10.3,29.95,NNW,345,0.0,0.0,37,0.00,,,0.00,VWS V14.01,2013-02-19 16:55:00,
2013-02-19 12:00:00,34.6,10.4,29.95,WSW,252,0.0,4.0,36,0.00,,,0.00,VWS V14.01,2013-02-19 17:00:00,
2013-02-19 12:05:00,34.8,11.8,29.94,WNW,297,0.0,0.0,38,0.00,,,0.00,VWS V14.01,2013-02-19 17:05:00,
2013-02-19 12:10:00,34.6,11.6,29.94,WNW,282,2.0,9.0,38,0.00,,,0.00,VWS V14.01,2013-02-19 17:10:00,
2013-02-19 12:15:00,34.5,11.5,29.93,NW,316,5.0,7.0,38,0.00,,,0.00,VWS V14.01,2013-02-19 17:15:00,
2013-02-19 12:20:00,34.7,11.1,29.93,SW,229,3.0,9.0,37,0.00,,,0.00,VWS V14.01,2013-02-19 17:20:00,
2013-02-19 12:25:00,34.4,10.2,29.92,ESE,117,0.0,1.0,36,0.00,,,0.00,VWS V14.01,2013-02-19 17:25:00,
2013-02-19 12:30:00,34.2,10.1,29.92,SW,221,0.0,5.0,36,0.00,,,0.00,VWS V14.01,2013-02-19 17:30:00,
2013-02-19 12:35:00,34.3,10.8,29.92,North,355,2.0,2.0,37,0.00,,,0.00,VWS V14.01,2013-02-19 17:35:00,
2013-02-19 12:40:00,34.2,11.8,29.91,NNW,344,0.0,4.0,39,0.00,,,0.00,VWS V14.01,2013-02-19 17:40:00,
2013-02-19 12:45:00,34.3,11.4,29.91,SE,138,5.0,5.0,38,0.00,,,0.00,VWS V14.01,2013-02-19 17:45:00,
2013-02-19 12:50:00,34.3,10.8,29.91,SE,135,0.0,7.0,37,0.00,,,0.00,VWS V14.01,2013-02-19 17:50:00,
2013-02-19 12:55:00,34.1,11.2,29.90,SE,127,4.0,8.0,38,0.00,,,0.00,VWS V14.01,2013-02-19 17:55:00,
2013-02-19 13:00:00,34.1,14.0,29.89,East,81,1.0,8.0,43,0.00,,,0.00,VWS V14.01,2013-02-19 18:00:00,
2013-02-19 13:05:00,34.0,11.7,29.88,SSW,206,3.0,9.0,39,0.00,,,0.00,VWS V14.01,2013-02-19 18:05:00,
2013-02-19 13:10:00,33.3,11.6,29.88,NE,43,0.0,11.0,40,0.00,,,0.00,VWS V14.01,2013-02-19 18:10:00,
2013-02-19 13:15:00,33.2,11.5,29.88,ENE,76,7.0,13.0,40,0.00,,,0.00,VWS V14.01,2013-02-19 18:15:00,
2013-02-19 13:20:00,33.0,11.9,29.87,NW,316,4.0,13.0,41,0.00,,,0.00,VWS V14.01,2013-02-19 18:20:00,
2013-02-19 13:25:00,33.2,13.7,29.87,West,279,3.0,4.0,44,0.00,,,0.00,VWS V14.01,2013-02-19 18:25:00,
2013-02-19 13:30:00,33.2,12.6,29.86,SSE,150,0.0,6.0,42,0.00,,,0.00,VWS V14.01,2013-02-19 18:30:00,
2013-02-19 13:35:00,33.0,13.0,29.87,WSW,238,5.0,11.0,43,0.00,,,0.00,VWS V14.01,2013-02-19 18:35:00,
2013-02-19 13:40:00,32.5,13.0,29.86,NW,315,4.0,11.0,44,0.00,,,0.00,VWS V14.01,2013-02-19 18:40:00,
2013-02-19 13:45:00,32.3,12.8,29.86,WSW,258,5.0,9.0,44,0.00,,,0.00,VWS V14.01,2013-02-19 18:45:00,
2013-02-19 13:50:00,32.1,12.7,29.85,SW,230,4.0,9.0,44,0.00,,,0.00,VWS V14.01,2013-02-19 18:50:00,
2013-02-19 13:55:00,31.8,11.9,29.85,WNW,287,5.0,8.0,43,0.00,,,0.00,VWS V14.01,2013-02-19 18:55:00,
2013-02-19 14:00:00,31.6,13.2,29.85,NW,307,4.0,10.0,46,0.00,,,0.00,VWS V14.01,2013-02-19 19:00:00,
2013-02-19 14:05:00,31.6,12.7,29.85,West,268,7.0,9.0,45,0.00,,,0.00,VWS V14.01,2013-02-19 19:05:00,
2013-02-19 14:10:00,31.7,12.8,29.85,West,273,0.0,10.0,45,0.00,,,0.00,VWS V14.01,2013-02-19 19:10:00,
2013-02-19 14:15:00,31.8,13.4,29.85,West,260,0.0,4.0,46,0.00,,,0.00,VWS V14.01,2013-02-19 19:15:00,
2013-02-19 14:20:00,32.0,13.6,29.83,ENE,69,8.0,11.0,46,0.00,,,0.00,VWS V14.01,2013-02-19 19:20:00,
2013-02-19 14:25:00,32.4,13.9,29.82,NNW,344,5.0,6.0,46,0.00,,,0.00,VWS V14.01,2013-02-19 19:25:00,
2013-02-19 14:30:00,32.9,14.9,29.82,NE,38,10.0,10.0,47,0.00,,,0.00,VWS V14.01,2013-02-19 19:30:00,
2013-02-19 14:35:00,33.3,15.3,29.82,ESE,119,1.0,5.0,47,0.00,,,0.00,VWS V14.01,2013-02-19 19:35:00,
2013-02-19 14:40:00,33.7,16.1,29.82,WNW,303,5.0,11.0,48,0.00,,,0.00,VWS V14.01,2013-02-19 19:40:00,
2013-02-19 14:45:00,34.3,16.2,29.81,NNW,328,3.0,3.0,47,0.00,,,0.00,VWS V14.01,2013-02-19 19:45:00,
2013-02-19 14:50:00,34.3,15.7,29.82,WNW,288,5.0,6.0,46,0.00,,,0.00,VWS V14.01,2013-02-19 19:50:00,
2013-02-19 14:55:00,34.6,16.0,29.82,WNW,296,4.0,6.0,46,0.00,,,0.00,VWS V14.01,2013-02-19 19:55:00,
2013-02-19 15:00:00,35.0,16.8,29.82,West,260,0.0,14.0,47,0.00,,,0.00,VWS V14.01,2013-02-19 20:00:00,
2013-02-19 15:05:00,35.2,17.0,29.82,SSE,158,0.0,2.0,47,0.00,,,0.00,VWS V14.01,2013-02-19 20:05:00,
2013-02-19 15:10:00,34.8,16.6,29.81,SW,221,1.0,13.0,47,0.00,,,0.00,VWS V14.01,2013-02-19 20:10:00,
2013-02-19 15:15:00,34.8,17.6,29.81,NNW,331,0.0,0.0,49,0.00,,,0.00,VWS V14.01,2013-02-19 20:15:00,
2013-02-19 15:20:00,34.9,18.2,29.80,West,259,0.0,4.0,50,0.00,,,0.00,VWS V14.01,2013-02-19 20:20:00,
2013-02-19 15:25:00,34.8,18.5,29.80,WNW,283,3.0,3.0,51,0.00,,,0.00,VWS V14.01,2013-02-19 20:25:00,
2013-02-19 15:30:00,34.8,18.5,29.80,ESE,106,2.0,4.0,51,0.00,,,0.00,VWS V14.01,2013-02-19 20:30:00,
2013-02-19 15:35:00,34.9,19.5,29.79,NW,324,4.0,5.0,53,0.00,,,0.00,VWS V14.01,2013-02-19 20:35:00,
2013-02-19 15:40:00,34.8,20.3,29.79,WSW,253,1.0,12.0,55,0.00,,,0.00,VWS V14.01,2013-02-19 20:40:00,
2013-02-19 15:45:00,35.0,20.5,29.79,West,265,4.0,5.0,55,0.00,,,0.00,VWS V14.01,2013-02-19 20:45:00,
2013-02-19 15:50:00,35.2,21.1,29.79,NW,323,7.0,18.0,56,0.00,,,0.00,VWS V14.01,2013-02-19 20:50:00,
2013-02-19 15:55:00,35.5,21.4,29.79,North,355,3.0,3.0,56,0.00,,,0.00,VWS V14.01,2013-02-19 20:55:00,
2013-02-19 16:00:00,35.6,21.9,29.79,WSW,246,5.0,9.0,57,0.00,,,0.00,VWS V14.01,2013-02-19 21:00:00,
2013-02-19 16:05:00,35.8,22.9,29.78,SSW,206,4.0,6.0,59,0.00,,,0.00,VWS V14.01,2013-02-19 21:05:00,
2013-02-19 16:10:00,36.0,23.1,29.78,SE,145,7.0,10.0,59,0.00,,,0.00,VWS V14.01,2013-02-19 21:10:00,
2013-02-19 16:15:00,36.1,23.6,29.78,ESE,123,4.0,4.0,60,0.00,,,0.00,VWS V14.01,2013-02-19 21:15:00,
2013-02-19 16:20:00,36.2,24.1,29.78,SSW,205,4.0,9.0,61,0.00,,,0.00,VWS V14.01,2013-02-19 21:20:00,
2013-02-19 16:25:00,36.1,24.4,29.78,North,5,4.0,4.0,62,0.00,,,0.00,VWS V14.01,2013-02-19 21:25:00,
2013-02-19 16:30:00,36.2,24.5,29.77,SSW,212,1.0,10.0,62,0.00,,,0.00,VWS V14.01,2013-02-19 21:30:00,
2013-02-19 16:35:00,36.0,25.0,29.77,SSW,202,2.0,5.0,64,0.00,,,0.00,VWS V14.01,2013-02-19 21:35:00,
2013-02-19 16:40:00,36.2,25.2,29.77,SW,217,3.0,8.0,64,0.00,,,0.00,VWS V14.01,2013-02-19 21:40:00,
2013-02-19 16:45:00,36.3,25.3,29.77,SSW,211,2.0,6.0,64,0.00,,,0.00,VWS V14.01,2013-02-19 21:45:00,
2013-02-19 16:50:00,36.1,26.2,29.76,SSE,148,1.0,9.0,67,0.00,,,0.00,VWS V14.01,2013-02-19 21:50:00,
2013-02-19 16:55:00,36.1,26.2,29.76,SSE,159,11.0,17.0,67,0.00,,,0.00,VWS V14.01,2013-02-19 21:55:00,
2013-02-19 17:00:00,36.2,26.0,29.76,ESE,115,1.0,17.0,66,0.00,,,0.00,VWS V14.01,2013-02-19 22:00:00,
2013-02-19 17:05:00,36.2,26.3,29.77,South,188,5.0,10.0,67,0.00,,,0.00,VWS V14.01,2013-02-19 22:05:00,
2013-02-19 17:10:00,36.1,26.6,29.77,WNW,284,5.0,10.0,68,0.00,,,0.00,VWS V14.01,2013-02-19 22:10:00,
2013-02-19 17:15:00,36.1,26.6,29.76,South,173,7.0,8.0,68,0.00,,,0.00,VWS V14.01,2013-02-19 22:15:00,
2013-02-19 17:20:00,36.0,26.8,29.76,SE,141,6.0,9.0,69,0.00,,,0.00,VWS V14.01,2013-02-19 22:20:00,
2013-02-19 17:25:00,35.7,26.9,29.76,WSW,239,0.0,0.0,70,0.00,,,0.00,VWS V14.01,2013-02-19 22:25:00,
2013-02-19 17:30:00,35.8,27.0,29.76,SW,234,0.0,12.0,70,0.00,,,0.00,VWS V14.01,2013-02-19 22:30:00,
2013-02-19 17:35:00,35.8,27.3,29.76,NE,40,2.0,3.0,71,0.00,,,0.00,VWS V14.01,2013-02-19 22:35:00,
2013-02-19 17:40:00,35.7,27.2,29.75,SSE,154,0.0,4.0,71,0.00,,,0.00,VWS V14.01,2013-02-19 22:40:00,
2013-02-19 17:45:00,35.5,27.7,29.76,West,272,0.0,2.0,73,0.00,,,0.00,VWS V14.01,2013-02-19 22:45:00,
2013-02-19 17:50:00,35.3,27.9,29.75,SW,218,0.0,9.0,74,0.00,,,0.00,VWS V14.01,2013-02-19 22:50:00,
2013-02-19 17:55:00,35.2,28.1,29.75,SSW,202,0.0,8.0,75,0.00,,,0.00,VWS V14.01,2013-02-19 22:55:00,
2013-02-19 18:00:00,35.1,28.3,29.75,South,180,2.0,8.0,76,0.00,,,0.00,VWS V14.01,2013-02-19 23:00:00,
2013-02-19 18:05:00,35.0,28.2,29.75,SW,232,4.0,6.0,76,0.00,,,0.00,VWS V14.01,2013-02-19 23:05:00,
2013-02-19 18:10:00,35.2,28.4,29.75,NNE,14,3.0,10.0,76,0.00,,,0.00,VWS V14.01,2013-02-19 23:10:00,
2013-02-19 18:15:00,35.2,28.7,29.75,SSW,196,2.0,4.0,77,0.00,,,0.00,VWS V14.01,2013-02-19 23:15:00,
2013-02-19 18:20:00,35.1,28.9,29.75,WSW,246,0.0,7.0,78,0.00,,,0.00,VWS V14.01,2013-02-19 23:20:00,
2013-02-19 18:25:00,35.1,28.9,29.75,SSW,192,0.0,0.0,78,0.00,,,0.00,VWS V14.01,2013-02-19 23:25:00,
2013-02-19 18:30:00,35.0,29.2,29.74,ESE,109,4.0,6.0,79,0.00,,,0.00,VWS V14.01,2013-02-19 23:30:00,
2013-02-19 18:35:00,34.8,29.3,29.73,SW,227,3.0,3.0,80,0.00,,,0.00,VWS V14.01,2013-02-19 23:35:00,
2013-02-19 18:40:00,34.5,29.3,29.74,SSE,151,0.0,14.0,81,0.00,,,0.00,VWS V14.01,2013-02-19 23:40:00,
2013-02-19 18:45:00,34.2,29.0,29.73,SSE,151,4.0,6.0,81,0.00,,,0.00,VWS V14.01,2013-02-19 23:45:00,
2013-02-19 18:50:00,33.7,28.5,29.73,North,349,0.0,9.0,81,0.00,,,0.00,VWS V14.01,2013-02-19 23:50:00,
2013-02-19 18:55:00,33.4,28.8,29.74,SW,229,2.0,4.0,83,0.00,,,0.00,VWS V14.01,2013-02-19 23:55:00,
2013-02-19 18:59:00,33.1,29.1,29.73,WSW,238,3.0,8.0,85,0.00,,,0.00,VWS V14.01,2013-02-19 23:59:00,
2013-02-19 19:04:00,32.9,29.2,29.74,NW,322,4.0,4.0,86,0.00,,,0.00,VWS V14.01,2013-02-20 00:04:00,
2013-02-19 19:09:00,32.8,29.4,29.73,North,360,0.0,11.0,87,0.00,,,0.00,VWS V14.01,2013-02-20 00:09:00,
2013-02-19 19:14:00,32.6,29.5,29.73,NNW,331,0.0,1.0,88,0.00,,,0.00,VWS V14.01,2013-02-20 00:14:00,
2013-02-19 19:19:00,32.4,29.2,29.73,WNW,285,2.0,3.0,88,0.00,,,0.00,VWS V14.01,2013-02-20 00:19:00,
2013-02-19 19:24:00,32.3,29.4,29.73,NNW,335,0.0,0.0,89,0.00,,,0.00,VWS V14.01,2013-02-20 00:24:00,
2013-02-19 19:29:00,32.3,29.4,29.72,WNW,303,0.0,5.0,89,0.00,,,0.00,VWS V14.01,2013-02-20 00:29:00,
2013-02-19 19:34:00,32.3,29.4,29.72,WNW,303,0.0,0.0,89,0.00,,,0.00,VWS V14.01,2013-02-20 00:34:00,
2013-02-19 19:39:00,32.3,29.7,29.71,NW,309,1.0,6.0,90,0.00,,,0.00,VWS V14.01,2013-02-20 00:39:00,
2013-02-19 19:44:00,32.3,29.7,29.71,WNW,292,0.0,0.0,90,0.00,,,0.00,VWS V14.01,2013-02-20 00:44:00,
2013-02-19 19:49:00,32.2,29.6,29.71,WNW,292,0.0,2.0,90,0.00,,,0.00,VWS V14.01,2013-02-20 00:49:00,
2013-02-19 19:54:00,32.2,29.6,29.71,NW,306,2.0,3.0,90,0.00,,,0.00,VWS V14.01,2013-02-20 00:54:00,
2013-02-19 19:59:00,32.2,29.9,29.71,West,266,0.0,3.0,91,0.00,,,0.00,VWS V14.01,2013-02-20 00:59:00,
2013-02-19 20:04:00,32.3,29.7,29.70,WSW,246,2.0,2.0,90,0.00,,,0.00,VWS V14.01,2013-02-20 01:04:00,
2013-02-19 20:09:00,32.3,29.7,29.70,ENE,77,0.0,5.0,90,0.00,,,0.00,VWS V14.01,2013-02-20 01:09:00,
2013-02-19 20:14:00,32.3,30.0,29.70,ENE,77,0.0,0.0,91,0.00,,,0.00,VWS V14.01,2013-02-20 01:14:00,
2013-02-19 20:19:00,32.3,30.0,29.69,North,360,0.0,3.0,91,0.00,,,0.00,VWS V14.01,2013-02-20 01:19:00,
2013-02-19 20:24:00,32.3,30.0,29.69,North,360,0.0,0.0,91,0.00,,,0.00,VWS V14.01,2013-02-20 01:24:00,
2013-02-19 20:29:00,32.1,29.8,29.69,North,360,0.0,0.0,91,0.00,,,0.00,VWS V14.01,2013-02-20 01:29:00,
2013-02-19 20:34:00,32.0,29.7,29.69,North,360,0.0,0.0,91,0.00,,,0.00,VWS V14.01,2013-02-20 01:34:00,
2013-02-19 20:39:00,31.9,29.8,29.69,North,360,0.0,0.0,92,0.00,,,0.00,VWS V14.01,2013-02-20 01:39:00,
2013-02-19 20:44:00,31.9,29.8,29.68,North,360,0.0,0.0,92,0.00,,,0.00,VWS V14.01,2013-02-20 01:44:00,
2013-02-19 20:49:00,31.8,29.8,29.68,North,360,0.0,1.0,92,0.00,,,0.00,VWS V14.01,2013-02-20 01:49:00,
2013-02-19 20:54:00,31.7,29.6,29.69,North,360,0.0,0.0,92,0.00,,,0.00,VWS V14.01,2013-02-20 01:54:00,
2013-02-19 20:59:00,31.7,29.9,29.68,North,360,0.0,0.0,93,0.00,,,0.00,VWS V14.01,2013-02-20 01:59:00,
2013-02-19 21:04:00,31.7,29.9,29.68,North,360,0.0,0.0,93,0.00,,,0.00,VWS V14.01,2013-02-20 02:04:00,
2013-02-19 21:10:00,31.6,29.8,29.68,North,360,0.0,0.0,93,0.00,,,0.00,VWS V14.01,2013-02-20 02:10:00,
2013-02-19 21:15:00,31.6,29.8,29.67,North,360,0.0,0.0,93,0.00,,,0.00,VWS V14.01,2013-02-20 02:15:00,
2013-02-19 21:20:00,31.6,29.8,29.67,ENE,68,0.0,2.0,93,0.00,,,0.00,VWS V14.01,2013-02-20 02:20:00,
2013-02-19 21:25:00,31.5,29.7,29.67,ENE,68,0.0,0.0,93,0.00,,,0.00,VWS V14.01,2013-02-20 02:25:00,
2013-02-19 21:30:00,31.5,29.7,29.68,ENE,68,0.0,0.0,93,0.00,,,0.00,VWS V14.01,2013-02-20 02:30:00,
2013-02-19 21:35:00,31.4,29.9,29.67,ENE,68,0.0,0.0,94,0.00,,,0.00,VWS V14.01,2013-02-20 02:35:00,
2013-02-19 21:40:00,31.4,29.9,29.67,ENE,68,0.0,0.0,94,0.00,,,0.00,VWS V14.01,2013-02-20 02:40:00,
2013-02-19 21:44:00,31.4,29.9,29.66,ENE,68,0.0,0.0,94,0.00,,,0.00,VWS V14.01,2013-02-20 02:44:00,
2013-02-19 21:49:00,31.3,29.8,29.66,ENE,68,0.0,0.0,94,0.00,,,0.00,VWS V14.01,2013-02-20 02:49:00,
2013-02-19 21:54:00,31.3,29.8,29.65,ENE,68,0.0,0.0,94,0.00,,,0.00,VWS V14.01,2013-02-20 02:54:00,
2013-02-19 21:59:00,31.3,29.8,29.65,ENE,68,0.0,0.0,94,0.00,,,0.00,VWS V14.01,2013-02-20 02:59:00,
2013-02-19 22:04:00,31.3,29.8,29.65,ENE,68,0.0,0.0,94,0.00,,,0.00,VWS V14.01,2013-02-20 03:04:00,
2013-02-19 22:09:00,31.3,29.8,29.65,ENE,68,0.0,0.0,94,0.00,,,0.00,VWS V14.01,2013-02-20 03:09:00,
2013-02-19 22:14:00,31.3,29.8,29.65,ENE,68,0.0,0.0,94,0.00,,,0.00,VWS V14.01,2013-02-20 03:14:00,
2013-02-19 22:19:00,31.3,29.8,29.64,ENE,68,0.0,0.0,94,0.00,,,0.00,VWS V14.01,2013-02-20 03:19:00,
2013-02-19 22:24:00,31.2,29.7,29.64,ENE,68,0.0,0.0,94,0.00,,,0.00,VWS V14.01,2013-02-20 03:24:00,
2013-02-19 22:29:00,31.3,30.0,29.65,ENE,68,0.0,0.0,95,0.00,,,0.00,VWS V14.01,2013-02-20 03:29:00,
2013-02-19 22:34:00,31.3,30.0,29.64,ENE,68,0.0,0.0,95,0.00,,,0.00,VWS V14.01,2013-02-20 03:34:00,
2013-02-19 22:39:00,31.3,30.0,29.64,ENE,68,0.0,0.0,95,0.00,,,0.00,VWS V14.01,2013-02-20 03:39:00,
2013-02-19 22:44:00,31.3,30.0,29.64,ENE,68,0.0,0.0,95,0.00,,,0.00,VWS V14.01,2013-02-20 03:44:00,
2013-02-19 22:49:00,31.4,30.1,29.64,ENE,68,0.0,0.0,95,0.00,,,0.00,VWS V14.01,2013-02-20 03:49:00,
2013-02-19 22:54:00,31.4,30.1,29.64,ENE,68,0.0,0.0,95,0.00,,,0.00,VWS V14.01,2013-02-20 03:54:00,
2013-02-19 22:59:00,31.4,30.1,29.64,ENE,68,0.0,0.0,95,0.00,,,0.00,VWS V14.01,2013-02-20 03:59:00,
2013-02-19 23:04:00,31.4,30.1,29.64,ENE,68,0.0,0.0,95,0.00,,,0.00,VWS V14.01,2013-02-20 04:04:00,
2013-02-19 23:09:00,31.4,30.1,29.64,ENE,68,0.0,0.0,95,0.00,,,0.00,VWS V14.01,2013-02-20 04:09:00,
2013-02-19 23:14:00,31.4,30.1,29.64,ENE,68,0.0,0.0,95,0.00,,,0.00,VWS V14.01,2013-02-20 04:14:00,
2013-02-19 23:19:00,31.4,30.1,29.63,ENE,68,0.0,0.0,95,0.00,,,0.00,VWS V14.01,2013-02-20 04:19:00,
2013-02-19 23:24:00,31.5,30.2,29.63,ENE,68,0.0,0.0,95,0.00,,,0.00,VWS V14.01,2013-02-20 04:24:00,
2013-02-19 23:29:00,31.5,30.2,29.63,ENE,68,0.0,0.0,95,0.00,,,0.00,VWS V14.01,2013-02-20 04:29:00,
2013-02-19 23:34:00,31.5,30.2,29.63,ENE,68,0.0,0.0,95,0.00,,,0.00,VWS V14.01,2013-02-20 04:34:00,
2013-02-19 23:39:00,31.4,30.1,29.63,ENE,68,0.0,0.0,95,0.00,,,0.00,VWS V14.01,2013-02-20 04:39:00,
2013-02-19 23:44:00,31.4,30.1,29.63,ENE,68,0.0,0.0,95,0.00,,,0.00,VWS V14.01,2013-02-20 04:44:00,
2013-02-19 23:49:00,31.4,30.1,29.63,ENE,68,0.0,0.0,95,0.00,,,0.00,VWS V14.01,2013-02-20 04:49:00,
2013-02-19 23:54:00,31.3,30.0,29.63,ENE,68,0.0,0.0,95,0.00,,,0.00,VWS V14.01,2013-02-20 04:54:00,
2013-02-19 23:59:00,31.2,29.9,29.63,ENE,68,0.0,0.0,95,0.00,,,0.00,VWS V14.01,2013-02-20 04:59:00,